createdAt,value
2018-03-07T00:00:37.716Z,3.23
2018-03-07T00:01:37.179Z,3.21
2018-03-07T00:02:37.029Z,3.19
2018-03-07T00:03:37.050Z,3.22
2018-03-07T00:04:38.212Z,3.18
2018-03-07T00:05:37.678Z,3.14
2018-03-07T00:06:36.588Z,3.11
2018-03-07T00:07:36.871Z,3.08
2018-03-07T00:08:36.781Z,3.10
2018-03-07T00:09:37.099Z,3.11
2018-03-07T00:10:37.397Z,3.13
2018-03-07T00:11:36.786Z,3.11
2018-03-07T00:13:21.423Z,3.10
2018-03-07T00:14:21.935Z,3.07
2018-03-07T00:15:22.445Z,3.07
2018-03-07T00:16:22.192Z,3.07
2018-03-07T00:17:21.490Z,3.07
2018-03-07T00:18:21.921Z,3.10
2018-03-07T00:19:22.318Z,3.13
2018-03-07T00:20:21.734Z,3.16
2018-03-07T00:21:22.076Z,3.18
2018-03-07T00:22:21.837Z,3.18
2018-03-07T00:23:43.832Z,3.13
2018-03-07T00:24:45.887Z,3.10
2018-03-07T00:25:44.967Z,3.10
2018-03-07T00:26:44.641Z,3.10
2018-03-07T00:27:44.482Z,3.08
2018-03-07T00:28:44.967Z,3.05
2018-03-07T00:29:44.202Z,3.05
2018-03-07T00:30:44.155Z,3.03
2018-03-07T00:31:44.622Z,3.00
2018-03-07T00:32:44.757Z,2.95
2018-03-07T00:33:45.123Z,2.92
2018-03-07T00:34:44.353Z,2.92
2018-03-07T00:35:44.076Z,2.93
2018-03-07T00:36:44.639Z,2.93
2018-03-07T00:37:45.505Z,2.92
2018-03-07T00:38:45.053Z,2.92
2018-03-07T00:39:43.914Z,2.93
2018-03-07T00:40:45.198Z,2.93
2018-03-07T00:41:44.735Z,2.97
2018-03-07T00:42:44.379Z,2.97
2018-03-07T00:43:44.842Z,2.95
2018-03-07T00:44:45.287Z,2.93
2018-03-07T00:45:44.598Z,2.90
2018-03-07T00:46:44.790Z,2.89
2018-03-07T00:47:44.678Z,2.87
2018-03-07T00:48:44.907Z,2.92
2018-03-07T00:50:29.622Z,3.00
2018-03-07T00:51:29.962Z,3.00
2018-03-07T00:52:52.552Z,3.00
2018-03-07T00:53:52.996Z,2.98
2018-03-07T00:54:53.536Z,2.98
2018-03-07T00:55:53.037Z,2.98
2018-03-07T00:56:53.527Z,2.97
2018-03-07T00:57:52.724Z,2.97
2018-03-07T00:58:53.235Z,2.98
2018-03-07T00:59:52.627Z,2.98
2018-03-07T01:00:52.945Z,2.98
2018-03-07T01:01:53.093Z,2.98
2018-03-07T01:02:53.554Z,2.95
2018-03-07T01:03:54.137Z,2.95
2018-03-07T01:04:53.565Z,2.95
2018-03-07T01:05:52.339Z,2.97
2018-03-07T01:06:53.109Z,2.97
2018-03-07T01:08:14.758Z,2.93
2018-03-07T01:09:16.711Z,2.92
2018-03-07T01:10:16.234Z,2.97
2018-03-07T01:11:15.218Z,2.95
2018-03-07T01:12:15.471Z,2.93
2018-03-07T01:13:15.885Z,2.90
2018-03-07T01:14:15.287Z,2.89
2018-03-07T01:15:15.196Z,2.87
2018-03-07T01:16:15.671Z,2.87
2018-03-07T01:17:14.720Z,2.89
2018-03-07T01:18:15.288Z,2.89
2018-03-07T01:19:15.909Z,2.89
2018-03-07T01:20:15.301Z,2.90
2018-03-07T01:21:15.827Z,2.87
2018-03-07T01:22:15.469Z,2.86
2018-03-07T01:23:37.527Z,2.82
2018-03-07T01:24:38.582Z,2.82
2018-03-07T01:26:21.629Z,2.77
2018-03-07T01:28:07.186Z,2.72
2018-03-07T01:29:07.196Z,2.71
2018-03-07T01:30:07.545Z,2.68
2018-03-07T01:31:08.090Z,2.67
2018-03-07T01:32:07.557Z,2.62
2018-03-07T01:33:30.088Z,2.62
2018-03-07T01:34:29.926Z,2.60
2018-03-07T01:35:30.400Z,2.60
2018-03-07T01:36:30.158Z,2.57
2018-03-07T01:37:30.073Z,2.57
2018-03-07T01:38:30.486Z,2.60
2018-03-07T01:39:30.909Z,2.60
2018-03-07T01:40:29.982Z,2.60
2018-03-07T01:41:30.613Z,2.54
2018-03-07T01:42:30.425Z,2.56
2018-03-07T01:43:30.845Z,2.56
2018-03-07T01:44:29.792Z,2.57
2018-03-07T01:45:30.344Z,2.61
2018-03-07T01:46:30.619Z,2.65
2018-03-07T01:47:30.258Z,2.68
2018-03-07T01:48:30.653Z,2.69
2018-03-07T01:49:30.088Z,2.69
2018-03-07T01:50:30.153Z,2.71
2018-03-07T01:51:52.790Z,2.71
2018-03-07T01:53:15.515Z,2.72
2018-03-07T01:54:16.865Z,2.80
2018-03-07T01:55:16.745Z,2.85
2018-03-07T01:56:16.470Z,2.89
2018-03-07T01:57:16.992Z,2.93
2018-03-07T01:58:16.360Z,2.90
2018-03-07T01:59:16.994Z,2.89
2018-03-07T02:00:16.422Z,2.87
2018-03-07T02:01:17.568Z,2.87
2018-03-07T02:02:16.753Z,2.90
2018-03-07T02:03:16.080Z,2.93
2018-03-07T02:04:16.434Z,2.97
2018-03-07T02:05:16.941Z,3.01
2018-03-07T02:06:16.493Z,3.03
2018-03-07T02:07:17.036Z,3.03
2018-03-07T02:08:16.329Z,3.00
2018-03-07T02:09:16.781Z,3.01
2018-03-07T02:10:16.163Z,3.00
2018-03-07T02:11:38.254Z,3.07
2018-03-07T02:12:38.117Z,3.08
2018-03-07T02:14:22.400Z,3.13
2018-03-07T02:15:22.833Z,3.13
2018-03-07T02:16:23.336Z,3.13
2018-03-07T02:17:22.880Z,3.16
2018-03-07T02:18:23.453Z,3.14
2018-03-07T02:19:23.034Z,3.14
2018-03-07T02:20:23.393Z,3.18
2018-03-07T02:21:22.950Z,3.21
2018-03-07T02:22:44.205Z,3.21
2018-03-07T02:23:45.447Z,3.21
2018-03-07T02:24:44.625Z,3.23
2018-03-07T02:25:45.007Z,3.22
2018-03-07T02:26:45.622Z,3.23
2018-03-07T02:27:45.075Z,3.26
2018-03-07T02:28:45.422Z,3.26
2018-03-07T02:29:44.263Z,3.31
2018-03-07T02:31:29.364Z,3.36
2018-03-07T02:32:29.646Z,3.40
2018-03-07T02:33:30.066Z,3.40
2018-03-07T02:34:29.603Z,3.41
2018-03-07T02:35:30.106Z,3.42
2018-03-07T02:36:29.441Z,3.42
2018-03-07T02:37:29.766Z,3.44
2018-03-07T02:38:29.619Z,3.44
2018-03-07T02:39:29.529Z,3.44
2018-03-07T02:40:30.005Z,3.48
2018-03-07T02:41:29.511Z,3.50
2018-03-07T02:42:29.351Z,3.51
2018-03-07T02:43:29.375Z,3.48
2018-03-07T02:44:29.917Z,3.48
2018-03-07T02:45:30.069Z,3.45
2018-03-07T02:46:29.349Z,3.45
2018-03-07T02:47:29.699Z,3.42
2018-03-07T02:48:29.987Z,3.37
2018-03-07T02:49:29.352Z,3.36
2018-03-07T02:50:29.825Z,3.32
2018-03-07T02:51:30.252Z,3.31
2018-03-07T02:52:50.703Z,3.26
2018-03-07T02:53:52.096Z,3.26
2018-03-07T02:54:51.253Z,3.25
2018-03-07T02:55:50.965Z,3.26
2018-03-07T02:57:12.637Z,3.26
2018-03-07T02:58:35.205Z,3.28
2018-03-07T02:59:57.673Z,3.31
2018-03-07T03:01:20.489Z,3.29
2018-03-07T03:02:20.373Z,3.32
2018-03-07T03:03:42.889Z,3.34
2018-03-07T03:04:43.021Z,3.37
2018-03-07T03:05:43.286Z,3.37
2018-03-07T03:06:43.165Z,3.40
2018-03-07T03:07:43.386Z,3.37
2018-03-07T03:08:43.493Z,3.40
2018-03-07T03:09:42.441Z,3.41
2018-03-07T03:11:05.133Z,3.41
2018-03-07T03:12:05.035Z,3.44
2018-03-07T03:13:05.403Z,3.45
2018-03-07T03:14:05.863Z,3.48
2018-03-07T03:15:05.258Z,3.50
2018-03-07T03:16:05.115Z,3.51
2018-03-07T03:17:49.868Z,3.55
2018-03-07T03:18:50.262Z,3.56
2018-03-07T03:19:50.667Z,3.58
2018-03-07T03:21:12.195Z,3.56
2018-03-07T03:22:12.338Z,3.56
2018-03-07T03:23:12.477Z,3.58
2018-03-07T03:24:56.673Z,3.60
2018-03-07T03:25:57.144Z,3.62
2018-03-07T03:26:57.058Z,3.60
2018-03-07T03:27:57.392Z,3.60
2018-03-07T03:28:57.559Z,3.60
2018-03-07T03:29:57.009Z,3.63
2018-03-07T03:30:56.945Z,3.66
2018-03-07T03:31:57.283Z,3.63
2018-03-07T03:32:57.303Z,3.63
2018-03-07T03:33:57.096Z,3.63
2018-03-07T03:34:57.564Z,3.65
2018-03-07T03:35:56.988Z,3.65
2018-03-07T03:36:57.445Z,3.65
2018-03-07T03:37:56.852Z,3.66
2018-03-07T03:38:57.326Z,3.68
2018-03-07T03:39:56.639Z,3.69
2018-03-07T03:41:19.236Z,3.70
2018-03-07T03:42:19.390Z,3.70
2018-03-07T03:43:19.823Z,3.69
2018-03-07T03:44:20.246Z,3.68
2018-03-07T03:45:19.088Z,3.69
2018-03-07T03:46:19.538Z,3.68
2018-03-07T03:47:41.356Z,3.68
2018-03-07T03:48:42.683Z,3.70
2018-03-07T03:49:42.313Z,3.77
2018-03-07T03:50:42.635Z,3.81
2018-03-07T03:51:41.807Z,3.81
2018-03-07T03:52:41.480Z,3.80
2018-03-07T03:53:42.045Z,3.86
2018-03-07T03:54:42.708Z,3.87
2018-03-07T03:55:42.162Z,3.87
2018-03-07T03:56:42.491Z,3.91
2018-03-07T03:57:41.974Z,3.88
2018-03-07T03:58:42.176Z,3.88
2018-03-07T03:59:41.924Z,3.88
2018-03-07T04:00:42.300Z,3.87
2018-03-07T04:01:42.009Z,3.86
2018-03-07T04:02:42.336Z,3.87
2018-03-07T04:03:42.478Z,3.84
2018-03-07T04:04:42.707Z,3.84
2018-03-07T04:05:41.688Z,3.83
2018-03-07T04:06:41.996Z,3.83
2018-03-07T04:08:04.391Z,3.83
2018-03-07T04:09:04.178Z,3.80
2018-03-07T04:10:04.771Z,3.78
2018-03-07T04:11:04.999Z,3.78
2018-03-07T04:12:05.227Z,3.78
2018-03-07T04:13:04.081Z,3.78
2018-03-07T04:14:04.491Z,3.77
2018-03-07T04:15:04.742Z,3.78
2018-03-07T04:16:05.034Z,3.80
2018-03-07T04:17:04.328Z,3.80
2018-03-07T04:18:26.681Z,3.83
2018-03-07T04:19:26.812Z,3.83
2018-03-07T04:20:26.935Z,3.81
2018-03-07T04:21:26.987Z,3.81
2018-03-07T04:22:49.586Z,3.84
2018-03-07T04:23:50.032Z,3.84
2018-03-07T04:24:50.531Z,3.84
2018-03-07T04:25:49.582Z,3.83
2018-03-07T04:26:50.033Z,3.81
2018-03-07T04:28:11.990Z,3.83
2018-03-07T04:29:13.530Z,3.83
2018-03-07T04:30:35.196Z,3.80
2018-03-07T04:31:35.672Z,3.81
2018-03-07T04:32:36.119Z,3.78
2018-03-07T04:33:35.114Z,3.78
2018-03-07T04:34:35.612Z,3.78
2018-03-07T04:35:36.086Z,3.76
2018-03-07T04:36:35.005Z,3.74
2018-03-07T04:37:35.447Z,3.70
2018-03-07T04:38:35.777Z,3.68
2018-03-07T04:39:36.171Z,3.63
2018-03-07T04:40:35.644Z,3.60
2018-03-07T04:41:35.568Z,3.55
2018-03-07T04:42:36.372Z,3.53
2018-03-07T04:43:35.735Z,3.51
2018-03-07T04:44:36.178Z,3.55
2018-03-07T04:45:57.537Z,3.58
2018-03-07T04:46:58.030Z,3.58
2018-03-07T04:47:58.220Z,3.59
2018-03-07T04:48:57.548Z,3.62
2018-03-07T04:49:58.106Z,3.62
2018-03-07T04:50:57.079Z,3.65
2018-03-07T04:51:58.059Z,3.65
2018-03-07T04:52:58.325Z,3.68
2018-03-07T04:53:57.778Z,3.69
2018-03-07T04:55:20.054Z,3.68
2018-03-07T04:56:20.004Z,3.65
2018-03-07T04:57:20.370Z,3.63
2018-03-07T04:58:20.981Z,3.59
2018-03-07T04:59:19.880Z,3.59
2018-03-07T05:00:20.430Z,3.58
2018-03-07T05:01:21.010Z,3.56
2018-03-07T05:02:20.438Z,3.56
2018-03-07T05:03:20.963Z,3.58
2018-03-07T05:04:20.270Z,3.60
2018-03-07T05:05:42.904Z,3.65
2018-03-07T05:06:42.824Z,3.68
2018-03-07T05:07:43.351Z,3.68
2018-03-07T05:08:43.908Z,3.69
2018-03-07T05:10:04.309Z,3.73
2018-03-07T05:11:04.908Z,3.74
2018-03-07T05:12:05.434Z,3.74
2018-03-07T05:13:04.823Z,3.73
2018-03-07T05:14:05.172Z,3.70
2018-03-07T05:15:05.348Z,3.70
2018-03-07T05:16:04.627Z,3.70
2018-03-07T05:17:04.518Z,3.68
2018-03-07T05:18:04.997Z,3.68
2018-03-07T05:19:27.564Z,3.66
2018-03-07T05:20:27.962Z,3.68
2018-03-07T05:21:26.733Z,3.69
2018-03-07T05:22:28.074Z,3.69
2018-03-07T05:23:26.911Z,3.69
2018-03-07T05:24:27.457Z,3.70
2018-03-07T05:27:27.662Z,3.77
2018-03-07T05:28:27.798Z,3.74
2018-03-07T05:29:28.327Z,3.76
2018-03-07T05:30:50.308Z,3.77
2018-03-07T05:31:51.112Z,3.76
2018-03-07T05:32:51.065Z,3.77
2018-03-07T05:34:13.248Z,3.80
2018-03-07T05:35:35.870Z,3.81
2018-03-07T05:36:36.277Z,3.78
2018-03-07T05:37:36.726Z,3.76
2018-03-07T05:38:36.324Z,3.73
2018-03-07T05:39:36.775Z,3.69
2018-03-07T05:40:36.105Z,3.66
2018-03-07T05:41:58.707Z,3.65
2018-03-07T05:42:58.565Z,3.63
2018-03-07T05:43:59.044Z,3.66
2018-03-07T05:44:59.503Z,3.66
2018-03-07T05:45:59.059Z,3.68
2018-03-07T05:46:59.329Z,3.68
2018-03-07T05:47:58.375Z,3.68
2018-03-07T05:48:58.572Z,3.69
2018-03-07T05:49:58.560Z,3.69
2018-03-07T05:50:58.729Z,3.69
2018-03-07T05:51:59.057Z,3.70
2018-03-07T05:52:59.352Z,3.70
2018-03-07T05:53:59.206Z,3.68
2018-03-07T05:54:59.042Z,3.66
2018-03-07T05:55:59.391Z,3.65
2018-03-07T05:56:58.264Z,3.63
2018-03-07T05:57:59.576Z,3.60
2018-03-07T05:58:59.100Z,3.56
2018-03-07T05:59:59.597Z,3.55
2018-03-07T06:00:58.487Z,3.50
2018-03-07T06:01:59.101Z,3.48
2018-03-07T06:02:59.209Z,3.48
2018-03-07T06:03:59.683Z,3.50
2018-03-07T06:04:58.781Z,3.48
2018-03-07T06:06:03.285Z,3.50
2018-03-07T06:06:59.727Z,3.47
2018-03-07T06:07:59.303Z,3.45
2018-03-07T06:08:58.235Z,3.45
2018-03-07T06:09:59.777Z,3.45
2018-03-07T06:10:59.407Z,3.48
2018-03-07T06:11:59.632Z,3.47
2018-03-07T06:12:59.277Z,3.48
2018-03-07T06:13:59.679Z,3.48
2018-03-07T06:14:59.074Z,3.48
2018-03-07T06:15:59.248Z,3.45
2018-03-07T06:16:58.892Z,3.42
2018-03-07T06:17:59.316Z,3.42
2018-03-07T06:18:58.654Z,3.41
2018-03-07T06:19:59.131Z,3.41
2018-03-07T06:21:00.230Z,3.37
2018-03-07T06:21:59.588Z,3.37
2018-03-07T06:22:59.246Z,3.40
2018-03-07T06:24:22.124Z,3.40
2018-03-07T06:25:22.678Z,3.41
2018-03-07T06:26:21.783Z,3.44
2018-03-07T06:27:21.902Z,3.45
2018-03-07T06:28:22.803Z,3.47
2018-03-07T06:29:44.627Z,3.48
2018-03-07T06:30:44.872Z,3.51
2018-03-07T06:31:45.290Z,3.53
2018-03-07T06:33:06.342Z,3.58
2018-03-07T06:34:06.908Z,3.58
2018-03-07T06:35:07.470Z,3.59
2018-03-07T06:36:07.182Z,3.59
2018-03-07T06:37:06.361Z,3.60
2018-03-07T06:38:06.618Z,3.62
2018-03-07T06:39:07.252Z,3.62
2018-03-07T06:40:06.827Z,3.60
2018-03-07T06:41:07.043Z,3.62
2018-03-07T06:42:07.509Z,3.62
2018-03-07T06:43:07.201Z,3.65
2018-03-07T06:44:06.856Z,3.66
2018-03-07T06:45:07.032Z,3.76
2018-03-07T06:46:06.717Z,3.78
2018-03-07T06:47:06.864Z,3.81
2018-03-07T06:48:07.684Z,3.81
2018-03-07T06:49:07.580Z,3.81
2018-03-07T06:50:07.266Z,3.83
2018-03-07T06:51:06.662Z,3.86
2018-03-07T06:52:06.750Z,3.86
2018-03-07T06:53:07.266Z,3.87
2018-03-07T06:54:06.191Z,3.91
2018-03-07T06:55:06.546Z,3.92
2018-03-07T06:56:29.278Z,3.94
2018-03-07T06:57:30.021Z,3.98
2018-03-07T06:58:29.660Z,4.01
2018-03-07T06:59:30.265Z,4.02
2018-03-07T07:00:30.087Z,4.04
2018-03-07T07:01:29.438Z,4.05
2018-03-07T07:02:30.335Z,4.06
2018-03-07T07:03:31.097Z,4.10
2018-03-07T07:04:29.149Z,4.12
2018-03-07T07:05:29.659Z,4.13
2018-03-07T07:06:28.785Z,4.16
2018-03-07T07:07:29.503Z,4.19
2018-03-07T07:08:52.704Z,4.23
2018-03-07T07:09:52.865Z,4.23
2018-03-07T07:10:53.477Z,4.26
2018-03-07T07:11:54.041Z,4.30
2018-03-07T07:12:53.632Z,4.31
2018-03-07T07:13:54.321Z,4.34
2018-03-07T07:14:53.422Z,4.37
2018-03-07T07:16:15.804Z,4.40
2018-03-07T07:17:16.334Z,4.44
2018-03-07T07:18:16.366Z,4.48
2018-03-07T07:19:16.900Z,4.50
2018-03-07T07:20:16.290Z,4.52
2018-03-07T07:21:16.682Z,4.56
2018-03-07T07:22:15.627Z,4.59
2018-03-07T07:23:16.616Z,4.63
2018-03-07T07:24:16.243Z,4.67
2018-03-07T07:25:17.068Z,4.68
2018-03-07T07:26:16.694Z,4.71
2018-03-07T07:27:15.946Z,4.74
2018-03-07T07:29:22.108Z,4.80
2018-03-07T07:30:22.925Z,4.80
2018-03-07T07:31:23.588Z,4.86
2018-03-07T07:32:46.596Z,4.92
2018-03-07T07:33:47.178Z,4.96
2018-03-07T07:34:46.419Z,5.02
2018-03-07T07:35:46.941Z,5.07
2018-03-07T07:36:46.923Z,5.10
2018-03-07T07:38:09.935Z,5.14
2018-03-07T07:39:09.981Z,5.15
2018-03-07T07:40:10.462Z,5.17
2018-03-07T07:41:10.527Z,5.18
2018-03-07T07:42:09.929Z,5.17
2018-03-07T07:43:10.132Z,5.10
2018-03-07T07:44:10.351Z,5.07
2018-03-07T07:45:09.898Z,5.05
2018-03-07T07:46:10.140Z,5.08
2018-03-07T07:47:10.790Z,5.11
2018-03-07T07:48:10.301Z,5.18
2018-03-07T07:49:54.742Z,5.29
2018-03-07T07:50:55.353Z,5.36
2018-03-07T07:51:55.837Z,5.46
2018-03-07T07:52:56.209Z,5.54
2018-03-07T07:54:17.586Z,5.61
2018-03-07T07:56:25.510Z,5.66
2018-03-07T07:57:26.042Z,5.68
2018-03-07T07:58:26.872Z,5.71
2018-03-07T07:59:26.291Z,5.69
2018-03-07T08:00:26.217Z,5.71
2018-03-07T08:01:26.288Z,5.71
2018-03-07T08:02:25.819Z,5.75
2018-03-07T08:03:26.495Z,5.80
2018-03-07T08:04:48.080Z,5.90
2018-03-07T08:05:48.289Z,5.97
2018-03-07T08:06:48.670Z,5.99
2018-03-07T08:07:48.931Z,6.01
2018-03-07T08:09:34.804Z,6.02
2018-03-07T08:10:36.078Z,6.07
2018-03-07T08:11:34.600Z,6.09
2018-03-07T08:12:34.695Z,6.14
2018-03-07T08:13:36.489Z,6.22
2018-03-07T08:14:35.047Z,6.31
2018-03-07T08:15:34.517Z,6.38
2018-03-07T08:16:35.100Z,6.44
2018-03-07T08:17:34.781Z,6.49
2018-03-07T08:18:35.162Z,6.45
2018-03-07T08:19:56.208Z,6.44
2018-03-07T08:20:56.482Z,6.44
2018-03-07T08:21:57.382Z,6.45
2018-03-07T08:22:56.456Z,6.48
2018-03-07T08:23:57.288Z,6.54
2018-03-07T08:24:57.145Z,6.57
2018-03-07T08:25:56.929Z,6.60
2018-03-07T08:26:57.030Z,6.63
2018-03-07T08:27:57.045Z,6.69
2018-03-07T08:28:57.807Z,6.69
2018-03-07T08:29:57.072Z,6.72
2018-03-07T08:30:56.743Z,6.77
2018-03-07T08:31:57.480Z,6.72
2018-03-07T08:32:57.198Z,6.74
2018-03-07T08:33:56.809Z,6.78
2018-03-07T08:34:57.226Z,6.82
2018-03-07T08:35:56.474Z,6.77
2018-03-07T08:36:57.300Z,6.72
2018-03-07T08:37:56.511Z,6.72
2018-03-07T08:38:56.640Z,6.72
2018-03-07T08:40:19.691Z,6.70
2018-03-07T08:41:21.791Z,6.72
2018-03-07T08:42:20.139Z,6.74
2018-03-07T08:43:20.370Z,6.75
2018-03-07T08:44:19.848Z,6.74
2018-03-07T08:45:20.101Z,6.69
2018-03-07T08:46:19.228Z,6.66
2018-03-07T08:47:20.127Z,6.66
2018-03-07T08:48:20.480Z,6.59
2018-03-07T08:49:20.795Z,6.52
2018-03-07T08:50:20.386Z,6.51
2018-03-07T08:51:20.085Z,6.52
2018-03-07T08:52:19.753Z,6.56
2018-03-07T08:53:20.392Z,6.56
2018-03-07T08:55:04.290Z,6.59
2018-03-07T08:56:05.773Z,6.57
2018-03-07T08:57:05.254Z,6.62
2018-03-07T08:58:05.201Z,6.62
2018-03-07T08:59:04.797Z,6.63
2018-03-07T09:00:05.474Z,6.60
2018-03-07T09:01:05.041Z,6.63
2018-03-07T09:02:05.992Z,6.56
2018-03-07T09:03:05.637Z,6.56
2018-03-07T09:04:05.385Z,6.60
2018-03-07T09:05:05.198Z,6.60
2018-03-07T09:06:05.027Z,6.64
2018-03-07T09:07:05.743Z,6.69
2018-03-07T09:08:04.908Z,6.69
2018-03-07T09:09:05.392Z,6.72
2018-03-07T09:10:04.833Z,6.69
2018-03-07T09:11:05.146Z,6.69
2018-03-07T09:12:05.360Z,6.70
2018-03-07T09:13:05.529Z,6.72
2018-03-07T09:14:06.439Z,6.69
2018-03-07T09:15:05.197Z,6.70
2018-03-07T09:16:05.887Z,6.72
2018-03-07T09:17:05.788Z,6.75
2018-03-07T09:18:05.029Z,6.81
2018-03-07T09:19:05.739Z,6.87
2018-03-07T09:20:05.285Z,6.95
2018-03-07T09:21:04.447Z,7.00
2018-03-07T09:22:05.056Z,7.05
2018-03-07T09:23:06.011Z,7.11
2018-03-07T09:24:05.598Z,7.15
2018-03-07T09:25:05.173Z,7.25
2018-03-07T09:26:05.526Z,7.33
2018-03-07T09:27:05.412Z,7.40
2018-03-07T09:28:04.730Z,7.57
2018-03-07T09:29:04.962Z,7.70
2018-03-07T09:30:05.145Z,7.85
2018-03-07T09:31:28.521Z,8.10
2018-03-07T09:32:27.936Z,8.34
2018-03-07T09:33:28.498Z,8.61
2018-03-07T09:34:28.383Z,8.94
2018-03-07T09:35:28.099Z,9.21
2018-03-07T09:36:27.624Z,9.55
2018-03-07T09:37:28.481Z,9.68
2018-03-07T09:38:28.274Z,9.83
2018-03-07T09:39:27.942Z,10.05
2018-03-07T09:40:27.926Z,10.40
2018-03-07T09:41:27.608Z,10.82
2018-03-07T09:42:28.414Z,11.30
2018-03-07T09:43:50.422Z,11.81
2018-03-07T09:45:13.415Z,12.02
2018-03-07T09:46:14.319Z,12.04
2018-03-07T09:47:35.562Z,12.50
2018-03-07T09:48:58.695Z,12.94
2018-03-07T09:49:59.405Z,13.30
2018-03-07T09:50:59.081Z,13.44
2018-03-07T09:52:20.848Z,13.25
2018-03-07T09:53:21.501Z,13.22
2018-03-07T09:54:21.029Z,13.22
2018-03-07T09:55:21.889Z,13.20
2018-03-07T09:56:21.191Z,13.16
2018-03-07T09:57:20.797Z,13.01
2018-03-07T09:58:21.195Z,12.91
2018-03-07T09:59:21.723Z,12.94
2018-03-07T10:00:21.353Z,12.97
2018-03-07T10:01:20.743Z,12.98
2018-03-07T10:02:21.399Z,12.86
2018-03-07T10:03:21.231Z,12.83
2018-03-07T10:04:21.750Z,12.72
2018-03-07T10:05:21.395Z,12.60
2018-03-07T10:06:43.470Z,12.55
2018-03-07T10:07:44.063Z,12.61
2018-03-07T10:09:06.387Z,12.68
2018-03-07T10:10:29.555Z,12.61
2018-03-07T10:11:30.242Z,12.73
2018-03-07T10:12:29.915Z,12.79
2018-03-07T10:13:29.148Z,12.73
2018-03-07T10:14:51.150Z,12.76
2018-03-07T10:15:52.811Z,12.72
2018-03-07T10:16:52.319Z,12.76
2018-03-07T10:17:52.205Z,12.86
2018-03-07T10:18:51.735Z,12.98
2018-03-07T10:20:14.619Z,13.77
2018-03-07T10:21:15.990Z,14.26
2018-03-07T10:22:14.895Z,14.66
2018-03-07T10:23:15.617Z,15.43
2018-03-07T10:24:15.349Z,16.15
2018-03-07T10:25:15.157Z,16.86
2018-03-07T10:26:14.927Z,17.44
2018-03-07T10:27:15.430Z,17.94
2018-03-07T10:28:15.041Z,18.28
2018-03-07T10:29:15.771Z,18.63
2018-03-07T10:30:15.484Z,18.90
2018-03-07T10:31:15.322Z,19.33
2018-03-07T10:32:14.986Z,19.66
2018-03-07T10:33:14.210Z,19.64
2018-03-07T10:34:14.715Z,19.62
2018-03-07T10:35:14.850Z,19.62
2018-03-07T10:36:15.357Z,19.62
2018-03-07T10:37:17.502Z,19.54
2018-03-07T10:38:15.186Z,19.00
2018-03-07T10:39:14.787Z,18.73
2018-03-07T10:40:15.403Z,18.78
2018-03-07T10:41:15.166Z,19.29
2018-03-07T10:42:14.411Z,19.69
2018-03-07T10:43:14.979Z,20.07
2018-03-07T10:44:14.876Z,20.31
2018-03-07T10:45:15.592Z,20.21
2018-03-07T10:46:14.779Z,20.21
2018-03-07T10:47:15.221Z,20.34
2018-03-07T10:48:14.815Z,20.44
2018-03-07T10:49:15.603Z,20.48
2018-03-07T10:50:15.185Z,20.59
2018-03-07T10:51:14.920Z,20.81
2018-03-07T10:52:15.603Z,20.95
2018-03-07T10:53:14.759Z,20.87
2018-03-07T10:54:15.334Z,20.52
2018-03-07T10:55:15.004Z,20.59
2018-03-07T10:56:15.645Z,20.78
2018-03-07T10:57:15.276Z,21.07
2018-03-07T10:58:36.522Z,21.46
2018-03-07T10:59:36.821Z,21.43
2018-03-07T11:00:37.977Z,21.72
2018-03-07T11:01:58.765Z,21.95
2018-03-07T11:02:59.447Z,22.06
2018-03-07T11:03:58.798Z,22.20
2018-03-07T11:04:58.988Z,22.43
2018-03-07T11:05:59.325Z,22.47
2018-03-07T11:06:58.654Z,22.48
2018-03-07T11:07:59.087Z,22.70
2018-03-07T11:08:59.788Z,22.90
2018-03-07T11:09:58.838Z,22.91
2018-03-07T11:11:21.812Z,22.91
2018-03-07T11:12:22.309Z,22.75
2018-03-07T11:13:21.874Z,22.72
2018-03-07T11:14:44.902Z,22.69
2018-03-07T11:15:45.564Z,22.72
2018-03-07T11:16:45.256Z,22.68
2018-03-07T11:17:44.797Z,22.69
2018-03-07T11:19:07.793Z,22.66
2018-03-07T11:20:08.558Z,22.53
2018-03-07T11:21:08.283Z,22.55
2018-03-07T11:22:07.811Z,22.41
2018-03-07T11:23:08.565Z,22.30
2018-03-07T11:24:07.716Z,22.35
2018-03-07T11:25:08.424Z,22.30
2018-03-07T11:26:07.836Z,22.29
2018-03-07T11:27:08.717Z,22.18
2018-03-07T11:28:08.611Z,21.99
2018-03-07T11:29:07.867Z,22.28
2018-03-07T11:30:30.729Z,22.10
2018-03-07T11:31:31.146Z,21.89
2018-03-07T11:32:30.950Z,22.02
2018-03-07T11:33:30.360Z,22.26
2018-03-07T11:34:31.052Z,22.44
2018-03-07T11:35:30.807Z,22.55
2018-03-07T11:36:31.543Z,22.90
2018-03-07T11:37:31.156Z,23.08
2018-03-07T11:38:30.655Z,23.28
2018-03-07T11:39:30.815Z,22.66
2018-03-07T11:40:33.314Z,22.23
2018-03-07T11:41:31.290Z,22.32
2018-03-07T11:42:31.703Z,22.38
2018-03-07T11:43:31.039Z,22.28
2018-03-07T11:44:31.280Z,22.32
2018-03-07T11:45:30.951Z,22.48
2018-03-07T11:46:31.608Z,22.65
2018-03-07T11:47:31.570Z,22.91
2018-03-07T11:48:30.936Z,22.72
2018-03-07T11:49:31.632Z,22.73
2018-03-07T11:50:31.367Z,23.03
2018-03-07T11:51:31.567Z,23.21
2018-03-07T11:52:30.700Z,22.91
2018-03-07T11:53:31.571Z,22.57
2018-03-07T11:54:31.284Z,22.30
2018-03-07T11:55:31.054Z,22.43
2018-03-07T11:56:30.976Z,22.65
2018-03-07T11:57:31.008Z,22.62
2018-03-07T11:58:31.322Z,22.94
2018-03-07T11:59:53.158Z,23.13
2018-03-07T12:00:54.153Z,23.47
2018-03-07T12:01:54.253Z,23.59
2018-03-07T12:02:55.060Z,23.80
2018-03-07T12:03:54.603Z,23.81
2018-03-07T12:04:54.252Z,23.80
2018-03-07T12:05:54.436Z,23.73
2018-03-07T12:06:53.706Z,23.61
2018-03-07T12:07:54.629Z,23.59
2018-03-07T12:08:54.341Z,23.48
2018-03-07T12:09:53.497Z,23.61
2018-03-07T12:10:53.952Z,23.71
2018-03-07T12:11:54.740Z,23.69
2018-03-07T12:12:53.795Z,23.84
2018-03-07T12:13:54.659Z,23.95
2018-03-07T12:14:53.939Z,23.88
2018-03-07T12:15:54.545Z,23.65
2018-03-07T12:16:54.130Z,23.44
2018-03-07T12:17:55.499Z,23.56
2018-03-07T12:18:53.479Z,23.50
2018-03-07T12:19:53.834Z,23.66
2018-03-07T12:20:54.497Z,23.80
2018-03-07T12:21:54.261Z,23.68
2018-03-07T12:22:56.038Z,23.76
2018-03-07T12:23:53.197Z,23.68
2018-03-07T12:24:54.814Z,23.84
2018-03-07T12:25:54.321Z,23.95
2018-03-07T12:26:54.044Z,23.93
2018-03-07T12:27:54.087Z,23.80
2018-03-07T12:28:53.681Z,23.59
2018-03-07T12:29:54.360Z,23.76
2018-03-07T12:30:53.751Z,23.76
2018-03-07T12:31:54.326Z,23.73
2018-03-07T12:32:53.944Z,23.68
2018-03-07T12:33:54.606Z,23.84
2018-03-07T12:34:54.284Z,24.05
2018-03-07T12:35:53.993Z,23.78
2018-03-07T12:36:54.362Z,23.68
2018-03-07T12:37:54.030Z,23.43
2018-03-07T12:38:53.762Z,23.21
2018-03-07T12:40:15.741Z,23.09
2018-03-07T12:41:16.324Z,23.00
2018-03-07T12:42:16.481Z,23.15
2018-03-07T12:43:16.919Z,23.23
2018-03-07T12:44:16.302Z,22.94
2018-03-07T12:45:16.733Z,22.73
2018-03-07T12:46:16.497Z,22.69
2018-03-07T12:47:15.966Z,22.63
2018-03-07T12:48:16.521Z,22.53
2018-03-07T12:50:01.342Z,22.30
2018-03-07T12:51:01.881Z,22.43
2018-03-07T12:52:01.062Z,22.45
2018-03-07T12:53:01.629Z,22.43
2018-03-07T12:54:02.400Z,22.59
2018-03-07T12:55:02.152Z,22.78
2018-03-07T12:56:01.580Z,22.76
2018-03-07T12:57:02.575Z,22.60
2018-03-07T12:58:02.039Z,22.54
2018-03-07T12:59:01.611Z,22.55
2018-03-07T13:00:02.234Z,22.30
2018-03-07T13:01:01.673Z,22.11
2018-03-07T13:02:02.231Z,22.02
2018-03-07T13:03:01.733Z,22.07
2018-03-07T13:04:02.244Z,22.06
2018-03-07T13:05:01.872Z,22.22
2018-03-07T13:06:01.692Z,22.15
2018-03-07T13:07:02.237Z,21.96
2018-03-07T13:08:01.827Z,21.99
2018-03-07T13:09:01.821Z,22.10
2018-03-07T13:10:02.439Z,21.75
2018-03-07T13:11:02.142Z,21.27
2018-03-07T13:12:01.877Z,21.46
2018-03-07T13:13:02.474Z,21.60
2018-03-07T13:14:01.712Z,21.73
2018-03-07T13:15:02.291Z,21.85
2018-03-07T13:16:01.880Z,21.87
2018-03-07T13:17:01.180Z,21.95
2018-03-07T13:18:01.510Z,21.95
2018-03-07T13:19:01.800Z,21.95
2018-03-07T13:20:24.014Z,22.07
2018-03-07T13:21:24.507Z,22.10
2018-03-07T13:22:24.553Z,22.06
2018-03-07T13:23:24.864Z,21.98
2018-03-07T13:24:24.084Z,21.99
2018-03-07T13:25:24.680Z,21.79
2018-03-07T13:26:45.894Z,21.66
2018-03-07T13:27:46.771Z,21.48
2018-03-07T13:28:46.596Z,21.51
2018-03-07T13:29:46.283Z,21.46
2018-03-07T13:30:46.895Z,21.52
2018-03-07T13:31:46.329Z,21.40
2018-03-07T13:32:46.971Z,21.20
2018-03-07T13:33:46.622Z,21.07
2018-03-07T13:34:46.323Z,21.05
2018-03-07T13:35:46.803Z,20.85
2018-03-07T13:36:46.013Z,20.62
2018-03-07T13:37:46.900Z,20.55
2018-03-07T13:38:46.835Z,20.41
2018-03-07T13:39:46.688Z,20.32
2018-03-07T13:40:46.435Z,20.26
2018-03-07T13:41:46.681Z,20.28
2018-03-07T13:42:46.872Z,20.31
2018-03-07T13:43:47.135Z,20.22
2018-03-07T13:45:09.904Z,19.73
2018-03-07T13:46:10.593Z,19.67
2018-03-07T13:47:32.541Z,19.89
2018-03-07T13:49:18.996Z,19.62
2018-03-07T13:50:19.582Z,19.34